TimeEDT,TemperatureF,Dew PointF,Humidity,Sea Level PressureIn,VisibilityMPH,Wind Direction,Wind SpeedMPH,Gust SpeedMPH,PrecipitationIn,Events,Conditions,WindDirDegrees,DateUTC
12:53 AM,60.1,57.0,90,29.98,10.0,Calm,Calm,-,N/A,,Clear,0,2012-10-06 04:53:00
1:53 AM,59.0,55.9,90,29.96,10.0,Calm,Calm,-,N/A,,Clear,0,2012-10-06 05:53:00
2:53 AM,57.9,55.9,93,29.95,7.0,Calm,Calm,-,N/A,,Clear,0,2012-10-06 06:53:00
3:53 AM,57.0,55.0,93,29.93,4.0,Calm,Calm,-,0.01,,Clear,0,2012-10-06 07:53:00
4:38 AM,55.4,53.6,94,29.97,2.0,Calm,Calm,-,N/A,,Partly Cloudy,0,2012-10-06 08:38:00
4:40 AM,55.4,53.6,94,29.97,1.0,Calm,Calm,-,N/A,,Mist,0,2012-10-06 08:40:00
4:48 AM,55.4,53.6,94,29.97,0.8,Calm,Calm,-,N/A,,Mist,0,2012-10-06 08:48:00
4:53 AM,55.0,54.0,96,29.91,1.0,Calm,Calm,-,N/A,,Mist,0,2012-10-06 08:53:00
5:02 AM,53.6,53.6,100,29.97,0.5,Calm,Calm,-,N/A,Fog,Fog,0,2012-10-06 09:02:00
5:26 AM,55.4,53.6,94,29.98,0.2,Calm,Calm,-,N/A,Fog,Fog,0,2012-10-06 09:26:00
5:33 AM,55.4,53.6,94,29.98,1.0,Calm,Calm,-,N/A,,Mist,0,2012-10-06 09:33:00
5:37 AM,55.4,55.4,100,29.98,2.0,Calm,Calm,-,N/A,,Scattered Clouds,0,2012-10-06 09:37:00
5:53 AM,55.9,54.0,93,29.94,5.0,Calm,Calm,-,N/A,,Partly Cloudy,0,2012-10-06 09:53:00
6:53 AM,55.0,53.1,93,29.94,7.0,Calm,Calm,-,N/A,,Clear,0,2012-10-06 10:53:00
7:07 AM,53.6,53.6,100,29.99,1.0,Calm,Calm,-,N/A,,Clear,0,2012-10-06 11:07:00
7:25 AM,55.4,53.6,94,29.98,4.0,Calm,Calm,-,N/A,,Clear,0,2012-10-06 11:25:00
7:53 AM,54.0,53.1,97,29.95,5.0,North,3.5,-,N/A,,Clear,350,2012-10-06 11:53:00
8:53 AM,57.9,55.9,93,29.95,8.0,Calm,Calm,-,N/A,,Clear,0,2012-10-06 12:53:00
10:53 AM,71.1,59.0,66,29.91,10.0,Variable,3.5,-,N/A,,Partly Cloudy,0,2012-10-06 14:53:00
11:53 AM,75.9,57.9,54,29.91,10.0,West,5.8,-,N/A,,Scattered Clouds,260,2012-10-06 15:53:00
12:53 PM,78.1,55.9,46,29.91,10.0,WNW,6.9,-,N/A,,Clear,300,2012-10-06 16:53:00
1:53 PM,78.1,55.9,46,29.89,10.0,Variable,3.5,-,N/A,,Mostly Cloudy,0,2012-10-06 17:53:00
2:53 PM,78.1,57.9,50,29.88,10.0,Variable,5.8,-,N/A,,Overcast,0,2012-10-06 18:53:00
3:53 PM,77.0,59.0,54,29.88,10.0,WNW,9.2,-,N/A,,Mostly Cloudy,300,2012-10-06 19:53:00
4:53 PM,75.9,57.9,54,29.87,10.0,NW,4.6,-,N/A,,Mostly Cloudy,310,2012-10-06 20:53:00
5:53 PM,73.9,57.0,55,29.88,10.0,NW,4.6,-,N/A,,Mostly Cloudy,310,2012-10-06 21:53:00
6:53 PM,71.1,57.9,63,29.90,10.0,North,3.5,-,N/A,,Overcast,350,2012-10-06 22:53:00
7:53 PM,69.1,57.9,68,29.92,10.0,North,4.6,-,N/A,,Overcast,360,2012-10-06 23:53:00
8:53 PM,66.9,57.0,70,29.93,10.0,NNE,4.6,-,0.00,,Overcast,30,2012-10-07 00:53:00
9:53 PM,64.0,57.0,78,29.94,10.0,Calm,Calm,-,N/A,,Scattered Clouds,0,2012-10-07 01:53:00
10:53 PM,64.9,59.0,81,29.95,10.0,East,3.5,-,N/A,,Mostly Cloudy,80,2012-10-07 02:53:00
11:53 PM,64.0,55.9,75,29.94,10.0,ENE,4.6,-,N/A,,Overcast,70,2012-10-07 03:53:00